Terminal Aerodrome Forecast
Issued by NWS

Home | Current Version | Previous Version | Text Only | Print | Product List | Glossary On
Versions: 1 2 3 4 5 6 7 8 9 10 11 12 13 14 15 16 17 18 19 20 21 22
617
FTUS41 KBGM 101137
TAFRME
TAF
KRME 101137Z 1012/1112 VRB03KT P6SM OVC060
      TEMPO 1012/1015 2SM -SN OVC025
     FM101500 23005KT 2SM -SN OVC015
     FM102100 27011KT 3/4SM -SN OVC009
     FM110300 28010KT 1 1/2SM -SN OVC012=

USA.gov is the U.S. government's official web portal to all federal, state and local government web resources and services.